Pagrindinis puslapis
METAR-TAF:

METAR-TAF

Oro uostai :

Pangnirtung, Nunavutas, Kanada

platuma: 66-09N, ilguma: 065-43W, Aukštis: 23 m

Dabartinis oras

Ataskaita buvo paskelbta 22 minutes, ne 21:00 UTC
Vėjas 2 kt nuo kintamojo kryptimis
Temperatūra -25°C
Drėgmė 57%
Slėgis 1000 hPa
Matomumas: 24.1 km
Mažai debesys ne aukštis 7000 ft

METAR: CYXP 202100Z VRB02KT 15SM FEW070 M25/M31 A2954 RMK AC1 SLP008

Laikas: 16:22 (21:22 UTC)

Prognozė

Ataskaita buvo paskelbta 2 valandos ir 44 minutes, ne 18:38 UTC
Prognozė galioja nuo 20 metu 19 UTC su 20 metu 23 UTC
Vėjas 3 kt nuo kintamojo kryptimis
Matomumas: 10 km
Mažai debesys ne aukštis 7000 ft
Išsisklaidę debesys ne aukštis 25000 ft

TAF: CYXP 201838Z 2019/2023 VRB03KT P6SM FEW070 SCT250 RMK NXT FCST WILL BE ISSUED AT 211345Z

Orai ataskaitas ir orų prognozės (METAR, TAF).

turimą stotys yra geltonos ir raudonos taškus žemėlapyje.

Perkelti pele per norėdami pamatyti stoties vardą.

Tada spustelėkite, norėdami matyti oro stebėjimo ir prognozės.

Norėdami pakeisti žemėlapį: spustelėkite ant žalios mygtukų su juodo kryžiaus žemyn,; žalią mygtuką su brūkšneliu, jei norite nutolinti; arba žalių rodyklių gretimoms žemėlapius.


METAR-TAF: